Time;durP1;ratioP1;P1;durP2;ratioP2;P2;SDS_P1;SDS_P2;PMS_P1;PMS_P2;Temp;Humidity;BMP_temperature;BMP_pressure;BME280_temperature;BME280_humidity;BME280_pressure;Samples;Min_cycle;Max_cycle;Signal;HPM_P1;HPM_P2
2023/02/08 00:09:29;;;;;;;0.20;0.10;;;9.20;99.90;;;;;;21072266;28;21062;-65
2023/02/08 00:19:34;;;;;;;0.20;0.10;;;9.20;99.90;;;;;;21071633;28;20473;-66
2023/02/08 00:29:38;;;;;;;0.20;0.10;;;9.10;99.90;;;;;;21070713;28;20502;-66
2023/02/08 00:39:43;;;;;;;0.20;0.10;;;9.10;99.90;;;;;;21069427;28;20947;-66
2023/02/08 00:49:47;;;;;;;0.20;0.10;;;9.10;99.90;;;;;;21068799;28;20416;-65
2023/02/08 00:59:53;;;;;;;0.20;0.10;;;9.20;99.90;;;;;;21068463;28;20400;-67
2023/02/08 01:09:57;;;;;;;0.20;0.10;;;9.10;99.90;;;;;;21066722;28;20474;-65
2023/02/08 01:20:02;;;;;;;0.20;0.10;;;9.10;99.90;;;;;;21066908;28;20405;-65
2023/02/08 01:30:07;;;;;;;0.20;0.10;;;9.30;99.90;;;;;;21047423;28;20466;-65
2023/02/08 01:40:13;;;;;;;0.20;0.10;;;9.10;99.90;;;;;;21063559;28;20900;-66
2023/02/08 01:50:21;;;;;;;0.20;0.10;;;9.00;99.90;;;;;;21062640;28;20414;-66
2023/02/08 02:00:27;;;;;;;0.20;0.10;;;8.90;99.90;;;;;;21063061;28;20849;-66
2023/02/08 02:10:33;;;;;;;0.20;0.10;;;9.10;99.90;;;;;;21062160;28;20458;-67
2023/02/08 02:20:57;;;;;;;0.20;0.10;;;9.00;99.90;;;;;;21061329;28;20492;-66
2023/02/08 02:31:26;;;;;;;0.20;0.10;;;9.30;99.90;;;;;;21062141;28;20423;-66
2023/02/08 02:52:06;;;;;;;0.20;0.10;;;9.00;99.90;;;;;;21061487;28;20503;-65
2023/02/08 03:02:12;;;;;;;0.20;0.10;;;8.70;99.90;;;;;;21061391;28;20752;-66
2023/02/08 03:12:30;;;;;;;0.20;0.10;;;8.70;99.90;;;;;;21060562;28;20407;-65
2023/02/08 03:22:43;;;;;;;0.20;0.10;;;8.70;99.90;;;;;;21058938;28;20453;-66
2023/02/08 03:32:51;;;;;;;0.20;0.10;;;8.80;99.90;;;;;;21058057;28;20430;-66
2023/02/08 03:43:03;;;;;;;0.20;0.10;;;8.70;99.90;;;;;;21087213;28;21004;-66
2023/02/08 03:53:08;;;;;;;0.20;0.10;;;8.60;99.90;;;;;;21072984;28;20473;-65
2023/02/08 04:03:17;;;;;;;0.20;0.10;;;8.40;99.90;;;;;;21073351;28;20759;-66
2023/02/08 04:13:21;;;;;;;0.20;0.10;;;8.20;99.90;;;;;;21071911;28;20899;-64
2023/02/08 04:23:26;;;;;;;0.20;0.10;;;8.10;99.90;;;;;;21053122;28;20397;-65
2023/02/08 04:33:30;;;;;;;0.20;0.10;;;8.00;99.90;;;;;;21069761;28;20412;-65
2023/02/08 04:43:35;;;;;;;0.20;0.10;;;8.20;99.90;;;;;;21068981;28;20396;-64
2023/02/08 04:53:39;;;;;;;0.20;0.10;;;8.10;99.90;;;;;;21068384;28;20971;-64
2023/02/08 05:03:44;;;;;;;0.20;0.10;;;8.30;99.90;;;;;;21068324;28;20408;-64
2023/02/08 05:13:48;;;;;;;0.20;0.10;;;8.20;99.90;;;;;;21066982;28;20891;-65
2023/02/08 05:23:53;;;;;;;0.20;0.10;;;8.20;99.90;;;;;;21063869;28;20399;-65
2023/02/08 05:33:57;;;;;;;0.20;0.10;;;8.20;99.90;;;;;;21065016;28;20412;-65
2023/02/08 05:44:02;;;;;;;0.20;0.10;;;8.30;99.90;;;;;;21064475;28;20406;-65
2023/02/08 05:54:06;;;;;;;0.20;0.10;;;8.20;99.90;;;;;;21061886;28;20418;-66
2023/02/08 06:04:11;;;;;;;0.20;0.10;;;8.20;99.90;;;;;;21062448;28;20400;-65
2023/02/08 06:14:15;;;;;;;0.20;0.10;;;8.10;99.90;;;;;;21044154;28;20512;-65
2023/02/08 06:24:21;;;;;;;0.20;0.10;;;8.20;99.90;;;;;;21061350;28;20416;-65
2023/02/08 06:34:25;;;;;;;0.20;0.10;;;8.10;99.90;;;;;;21061466;28;20415;-65
2023/02/08 06:44:31;;;;;;;0.20;0.10;;;8.30;99.90;;;;;;21092695;28;20392;-64
2023/02/08 06:54:35;;;;;;;0.20;0.10;;;8.30;99.90;;;;;;21051608;28;20466;-67
2023/02/08 07:04:40;;;;;;;0.20;0.10;;;8.20;99.90;;;;;;21053330;28;20802;-67
2023/02/08 07:14:44;;;;;;;0.20;0.10;;;8.30;99.90;;;;;;21071258;28;20465;-63
2023/02/08 07:24:50;;;;;;;0.20;0.10;;;8.30;99.90;;;;;;21072302;28;20503;-65
2023/02/08 07:34:54;;;;;;;0.20;0.10;;;8.20;99.90;;;;;;21072268;28;20416;-66
2023/02/08 07:44:59;;;;;;;0.20;0.10;;;8.20;99.90;;;;;;21070337;28;20464;-66
2023/02/08 07:55:02;;;;;;;0.20;0.10;;;8.20;99.90;;;;;;21069839;28;20473;-66
2023/02/08 08:05:09;;;;;;;0.20;0.10;;;8.40;99.90;;;;;;21068439;28;20413;-67
2023/02/08 08:15:13;;;;;;;0.20;0.10;;;8.50;99.90;;;;;;21068680;28;20408;-65
2023/02/08 08:25:18;;;;;;;0.20;0.10;;;8.80;99.90;;;;;;21063500;28;20470;-65
2023/02/08 08:35:22;;;;;;;0.20;0.10;;;8.90;99.90;;;;;;21066580;28;20408;-65
2023/02/08 08:45:27;;;;;;;0.20;0.10;;;8.90;99.90;;;;;;21065600;28;20875;-66
2023/02/08 08:55:31;;;;;;;0.20;0.10;;;9.00;99.90;;;;;;21061687;28;20416;-65
2023/02/08 09:05:36;;;;;;;0.20;0.10;;;9.20;99.90;;;;;;21064268;28;20396;-66
2023/02/08 09:15:41;;;;;;;0.20;0.10;;;9.30;99.90;;;;;;21062557;28;20418;-64
2023/02/08 09:25:47;;;;;;;0.20;0.10;;;9.60;99.90;;;;;;21061241;28;20907;-65
2023/02/08 09:35:52;;;;;;;0.20;0.10;;;9.90;99.90;;;;;;21061339;28;21167;-65
2023/02/08 09:46:05;;;;;;;0.20;0.10;;;10.10;99.90;;;;;;21062474;28;20473;-66
2023/02/08 09:56:14;;;;;;;0.20;0.10;;;10.30;99.90;;;;;;21002977;28;20406;-66
2023/02/08 10:06:21;;;;;;;0.20;0.10;;;10.60;99.90;;;;;;20990439;28;20946;-65
2023/02/08 10:16:43;;;;;;;0.20;0.10;;;11.20;99.90;;;;;;21030695;28;20404;-64
2023/02/08 10:26:58;;;;;;;0.20;0.10;;;11.20;99.90;;;;;;21056728;28;20442;-63
2023/02/08 10:37:11;;;;;;;0.20;0.10;;;11.40;99.90;;;;;;21040450;28;20430;-65
2023/02/08 10:47:23;;;;;;;0.20;0.10;;;11.10;99.90;;;;;;21041215;28;20398;-65
2023/02/08 10:57:31;;;;;;;0.20;0.10;;;12.10;99.90;;;;;;20992246;28;20482;-66
2023/02/08 11:07:37;;;;;;;0.20;0.10;;;11.30;99.90;;;;;;20990800;28;20445;-66
2023/02/08 11:17:41;;;;;;;0.20;0.10;;;12.20;99.90;;;;;;20988503;28;20488;-65
2023/02/08 11:27:49;;;;;;;0.20;0.10;;;12.20;99.90;;;;;;20987953;28;20415;-66
2023/02/08 11:37:56;;;;;;;0.20;0.10;;;12.80;99.90;;;;;;20987121;28;20488;-65
2023/02/08 11:48:03;;;;;;;0.20;0.10;;;12.00;99.90;;;;;;20987197;28;20800;-66
2023/02/08 11:58:25;;;;;;;0.20;0.10;;;12.50;99.90;;;;;;21018594;28;20761;-64
2023/02/08 12:08:37;;;;;;;0.20;0.10;;;11.90;99.90;;;;;;20984009;28;20760;-65
2023/02/08 12:19:05;;;;;;;0.20;0.10;;;11.40;99.90;;;;;;21033575;28;20397;-64
2023/02/08 12:29:27;;;;;;;0.20;0.10;;;11.70;99.90;;;;;;21066515;28;20846;-65
2023/02/08 12:50:26;;;;;;;0.20;0.10;;;13.60;99.90;;;;;;21033831;28;20407;-65
2023/02/08 13:00:33;;;;;;;0.20;0.10;;;11.90;99.90;;;;;;21064649;28;20405;-64
2023/02/08 13:10:42;;;;;;;0.20;0.10;;;11.90;99.90;;;;;;21062382;28;20408;-65
2023/02/08 13:20:49;;;;;;;0.20;0.10;;;12.30;99.90;;;;;;21062040;28;20412;-64
2023/02/08 13:31:00;;;;;;;0.20;0.10;;;12.20;99.90;;;;;;21056368;28;20408;-64
2023/02/08 13:41:07;;;;;;;0.20;0.10;;;11.90;99.90;;;;;;21054813;28;20891;-65
2023/02/08 13:51:58;;;;;;;0.20;0.10;;;11.90;99.90;;;;;;20998944;28;20414;-65
2023/02/08 14:02:28;;;;;;;0.20;0.10;;;11.50;99.90;;;;;;20977239;28;20442;-65
2023/02/08 14:12:39;;;;;;;0.20;0.10;;;12.00;99.90;;;;;;20957838;28;20929;-65
2023/02/08 14:22:51;;;;;;;0.20;0.10;;;11.40;99.90;;;;;;20973867;28;20735;-65
2023/02/08 14:33:12;;;;;;;0.20;0.10;;;11.80;99.90;;;;;;20975259;28;20418;-65
2023/02/08 14:43:36;;;;;;;0.20;0.10;;;11.80;99.90;;;;;;21056040;28;20400;-64
2023/02/08 14:53:46;;;;;;;0.20;0.10;;;12.10;99.90;;;;;;21140248;28;20456;-65
2023/02/08 15:03:55;;;;;;;0.20;0.10;;;12.40;99.90;;;;;;21142666;28;20424;-64
2023/02/08 15:14:04;;;;;;;0.20;0.10;;;12.30;99.90;;;;;;21121808;28;20893;-64
2023/02/08 15:24:17;;;;;;;0.20;0.10;;;12.30;99.90;;;;;;21105661;28;21041;-64
2023/02/08 15:34:24;;;;;;;0.20;0.10;;;12.40;99.90;;;;;;21046871;28;20416;-65
2023/02/08 15:44:31;;;;;;;0.20;0.00;;;12.50;99.90;;;;;;21085379;28;20388;-64
2023/02/08 15:54:35;;;;;;;0.20;0.10;;;12.10;99.90;;;;;;21066323;28;20436;-64
2023/02/08 16:04:45;;;;;;;0.20;0.10;;;12.00;99.90;;;;;;21049543;28;20389;-64
2023/02/08 16:14:49;;;;;;;0.20;0.10;;;11.50;99.90;;;;;;21064463;28;20432;-65
2023/02/08 16:25:23;;;;;;;0.20;0.10;;;11.50;99.90;;;;;;21066898;28;20949;-64
2023/02/08 16:35:29;;;;;;;0.20;0.10;;;11.10;99.90;;;;;;21048547;28;20495;-63
2023/02/08 16:45:34;;;;;;;0.20;0.10;;;10.70;99.90;;;;;;21064665;28;20536;-63
2023/02/08 16:55:38;;;;;;;0.20;0.10;;;10.60;99.90;;;;;;21091729;28;20534;-64
2023/02/08 17:05:44;;;;;;;0.20;0.10;;;10.70;99.90;;;;;;21113186;28;20386;-63
2023/02/08 17:15:50;;;;;;;0.20;0.10;;;10.60;99.90;;;;;;21145909;28;20436;-65
2023/02/08 17:25:56;;;;;;;0.20;0.10;;;10.30;99.90;;;;;;21142369;28;20417;-63
2023/02/08 17:36:01;;;;;;;0.20;0.10;;;10.20;99.90;;;;;;21142708;28;20522;-64
2023/02/08 17:46:10;;;;;;;0.20;0.10;;;10.00;99.90;;;;;;21144603;28;20485;-64
2023/02/08 17:56:17;;;;;;;0.20;0.10;;;9.90;99.90;;;;;;21126007;28;20414;-64
2023/02/08 18:06:23;;;;;;;0.20;0.10;;;9.80;99.90;;;;;;21144060;28;21077;-66
2023/02/08 18:16:29;;;;;;;0.20;0.10;;;9.90;99.90;;;;;;21142273;28;20450;-69
2023/02/08 18:26:35;;;;;;;0.20;0.10;;;9.80;99.90;;;;;;21123316;28;20406;-65
2023/02/08 18:36:38;;;;;;;0.20;0.10;;;9.70;99.90;;;;;;21142040;28;20418;-65
2023/02/08 18:46:46;;;;;;;0.20;0.10;;;9.10;99.90;;;;;;21123319;28;20395;-65
2023/02/08 18:56:54;;;;;;;0.20;0.10;;;9.00;99.90;;;;;;21122396;28;20464;-65
2023/02/08 19:06:59;;;;;;;0.20;0.10;;;9.10;99.90;;;;;;21151193;28;20486;-64
2023/02/08 19:17:03;;;;;;;0.20;0.10;;;8.90;99.90;;;;;;21157127;28;20410;-65
2023/02/08 19:27:09;;;;;;;0.20;0.10;;;8.90;99.90;;;;;;21137369;28;20403;-65
2023/02/08 19:37:13;;;;;;;0.20;0.10;;;8.70;99.90;;;;;;21136921;28;20433;-64
2023/02/08 19:47:18;;;;;;;0.20;0.10;;;8.60;99.90;;;;;;21171610;27;21018;-64
2023/02/08 19:57:22;;;;;;;0.20;0.10;;;8.50;99.90;;;;;;21120495;28;20469;-66
2023/02/08 20:07:27;;;;;;;0.20;0.10;;;8.40;99.90;;;;;;21156071;28;20464;-67
2023/02/08 20:17:31;;;;;;;0.20;0.10;;;8.50;99.90;;;;;;21135843;28;20778;-64
2023/02/08 20:27:37;;;;;;;0.20;0.10;;;8.30;99.90;;;;;;21153143;28;20893;-64
2023/02/08 20:37:42;;;;;;;0.20;0.10;;;8.30;99.90;;;;;;21147445;28;20453;-65
2023/02/08 20:47:47;;;;;;;0.20;0.10;;;8.20;99.90;;;;;;21145706;28;20422;-65
2023/02/08 20:57:51;;;;;;;0.20;0.10;;;8.20;99.90;;;;;;21145099;28;20414;-65
2023/02/08 21:07:56;;;;;;;0.20;0.10;;;8.30;99.90;;;;;;21142323;28;20428;-65
2023/02/08 21:18:00;;;;;;;0.20;0.10;;;8.40;99.90;;;;;;21125903;28;20403;-62
2023/02/08 21:28:06;;;;;;;0.20;0.10;;;8.40;99.90;;;;;;21141590;28;20418;-67
2023/02/08 21:38:10;;;;;;;0.20;0.10;;;8.40;99.90;;;;;;21128782;28;20398;-65
2023/02/08 21:48:15;;;;;;;0.20;0.10;;;8.50;99.90;;;;;;21146046;28;20425;-66
2023/02/08 21:58:19;;;;;;;0.20;0.10;;;8.60;99.90;;;;;;21145723;28;20406;-65
2023/02/08 22:08:24;;;;;;;0.20;0.10;;;8.40;99.90;;;;;;21129081;28;20893;-66
2023/02/08 22:18:29;;;;;;;0.20;0.10;;;8.40;99.90;;;;;;21128485;28;20414;-65
2023/02/08 22:28:35;;;;;;;0.20;0.10;;;8.60;99.90;;;;;;21145665;28;20455;-65
2023/02/08 22:38:39;;;;;;;0.20;0.10;;;8.70;99.90;;;;;;21109732;28;20418;-66
2023/02/08 22:48:44;;;;;;;0.20;0.10;;;8.60;99.90;;;;;;21126731;28;20399;-65
2023/02/08 22:58:48;;;;;;;0.20;0.10;;;8.60;99.90;;;;;;21145249;28;20414;-64
2023/02/08 23:08:53;;;;;;;0.20;0.10;;;8.50;99.90;;;;;;21126170;28;20395;-64
2023/02/08 23:18:57;;;;;;;0.20;0.10;;;8.60;99.90;;;;;;21144371;28;20414;-64
2023/02/08 23:29:02;;;;;;;0.20;0.10;;;8.60;99.90;;;;;;21126047;28;20976;-65
2023/02/08 23:39:06;;;;;;;0.20;0.10;;;8.40;99.90;;;;;;21125719;28;20406;-65
2023/02/08 23:49:11;;;;;;;0.20;0.10;;;8.40;99.90;;;;;;21109139;28;20395;-65
2023/02/08 23:59:15;;;;;;;0.20;0.10;;;8.40;99.90;;;;;;21149725;28;20418;-65
